sensor_id;sensor_type;location;lat;lon;timestamp;temperature;humidity
21918;DHT22;11123;49.882;8.662;2022-07-29T00:01:18;21.80;99.90
21918;DHT22;11123;49.882;8.662;2022-07-29T00:03:48;21.80;99.90
21918;DHT22;11123;49.882;8.662;2022-07-29T00:06:16;21.80;99.90
21918;DHT22;11123;49.882;8.662;2022-07-29T00:08:45;21.80;99.90
21918;DHT22;11123;49.882;8.662;2022-07-29T00:11:13;21.70;99.90
21918;DHT22;11123;49.882;8.662;2022-07-29T00:13:41;21.70;99.90
21918;DHT22;11123;49.882;8.662;2022-07-29T00:16:16;21.70;99.90
21918;DHT22;11123;49.882;8.662;2022-07-29T00:18:45;21.70;99.90
21918;DHT22;11123;49.882;8.662;2022-07-29T00:21:14;21.60;99.90
21918;DHT22;11123;49.882;8.662;2022-07-29T00:23:43;21.60;99.90
21918;DHT22;11123;49.882;8.662;2022-07-29T00:26:11;21.50;99.90
21918;DHT22;11123;49.882;8.662;2022-07-29T00:28:39;21.50;99.90
21918;DHT22;11123;49.882;8.662;2022-07-29T00:31:07;21.50;99.90
21918;DHT22;11123;49.882;8.662;2022-07-29T00:33:35;21.40;99.90
21918;DHT22;11123;49.882;8.662;2022-07-29T00:36:04;21.40;99.90
21918;DHT22;11123;49.882;8.662;2022-07-29T00:38:33;21.30;99.90
21918;DHT22;11123;49.882;8.662;2022-07-29T00:41:01;21.30;99.90
21918;DHT22;11123;49.882;8.662;2022-07-29T00:43:29;21.30;99.90
21918;DHT22;11123;49.882;8.662;2022-07-29T00:45:57;21.20;99.90
21918;DHT22;11123;49.882;8.662;2022-07-29T00:48:26;21.20;99.90
21918;DHT22;11123;49.882;8.662;2022-07-29T00:50:54;21.10;99.90
21918;DHT22;11123;49.882;8.662;2022-07-29T00:53:24;21.10;99.90
21918;DHT22;11123;49.882;8.662;2022-07-29T00:55:55;21.10;99.90
21918;DHT22;11123;49.882;8.662;2022-07-29T00:58:24;21.10;99.90
21918;DHT22;11123;49.882;8.662;2022-07-29T01:00:53;21.00;99.90
21918;DHT22;11123;49.882;8.662;2022-07-29T01:03:21;21.00;99.90
21918;DHT22;11123;49.882;8.662;2022-07-29T01:05:49;21.00;99.90
21918;DHT22;11123;49.882;8.662;2022-07-29T01:08:18;20.90;99.90
21918;DHT22;11123;49.882;8.662;2022-07-29T01:10:48;20.90;99.90
21918;DHT22;11123;49.882;8.662;2022-07-29T01:13:19;20.80;99.90
21918;DHT22;11123;49.882;8.662;2022-07-29T01:15:53;20.80;99.90
21918;DHT22;11123;49.882;8.662;2022-07-29T01:18:30;20.70;99.90
21918;DHT22;11123;49.882;8.662;2022-07-29T01:21:27;20.70;99.90
21918;DHT22;11123;49.882;8.662;2022-07-29T01:24:28;20.60;99.90
21918;DHT22;11123;49.882;8.662;2022-07-29T01:27:04;20.60;99.90
21918;DHT22;11123;49.882;8.662;2022-07-29T01:29:46;20.60;99.90
21918;DHT22;11123;49.882;8.662;2022-07-29T01:32:18;20.60;99.90
21918;DHT22;11123;49.882;8.662;2022-07-29T01:34:58;20.60;99.90
21918;DHT22;11123;49.882;8.662;2022-07-29T01:37:36;20.60;99.90
21918;DHT22;11123;49.882;8.662;2022-07-29T01:40:11;20.60;99.90
21918;DHT22;11123;49.882;8.662;2022-07-29T01:42:43;20.60;99.90
21918;DHT22;11123;49.882;8.662;2022-07-29T01:45:17;20.50;99.90
21918;DHT22;11123;49.882;8.662;2022-07-29T01:47:56;20.50;99.90
21918;DHT22;11123;49.882;8.662;2022-07-29T01:50:30;20.50;99.90
21918;DHT22;11123;49.882;8.662;2022-07-29T01:53:01;20.50;99.90
21918;DHT22;11123;49.882;8.662;2022-07-29T01:55:33;20.50;99.90
21918;DHT22;11123;49.882;8.662;2022-07-29T01:58:04;20.50;99.90
21918;DHT22;11123;49.882;8.662;2022-07-29T02:00:35;20.50;99.90
21918;DHT22;11123;49.882;8.662;2022-07-29T02:03:08;20.50;99.90
21918;DHT22;11123;49.882;8.662;2022-07-29T02:05:39;20.50;99.90
21918;DHT22;11123;49.882;8.662;2022-07-29T02:08:10;20.40;99.90
21918;DHT22;11123;49.882;8.662;2022-07-29T02:10:40;20.40;99.90
21918;DHT22;11123;49.882;8.662;2022-07-29T02:13:11;20.40;99.90
21918;DHT22;11123;49.882;8.662;2022-07-29T02:15:42;20.50;99.90
21918;DHT22;11123;49.882;8.662;2022-07-29T02:18:15;20.40;99.90
21918;DHT22;11123;49.882;8.662;2022-07-29T02:20:47;20.40;99.90
21918;DHT22;11123;49.882;8.662;2022-07-29T02:23:21;20.40;99.90
21918;DHT22;11123;49.882;8.662;2022-07-29T02:25:52;20.40;99.90
21918;DHT22;11123;49.882;8.662;2022-07-29T02:28:23;20.40;99.90
21918;DHT22;11123;49.882;8.662;2022-07-29T02:30:55;20.40;99.90
21918;DHT22;11123;49.882;8.662;2022-07-29T02:33:26;20.40;99.90
21918;DHT22;11123;49.882;8.662;2022-07-29T02:35:55;20.40;99.90
21918;DHT22;11123;49.882;8.662;2022-07-29T02:38:25;20.30;99.90
21918;DHT22;11123;49.882;8.662;2022-07-29T02:41:17;20.40;99.90
21918;DHT22;11123;49.882;8.662;2022-07-29T02:43:48;20.30;99.90
21918;DHT22;11123;49.882;8.662;2022-07-29T02:46:27;20.30;99.90
21918;DHT22;11123;49.882;8.662;2022-07-29T02:49:02;20.30;99.90
21918;DHT22;11123;49.882;8.662;2022-07-29T02:51:37;20.20;99.90
21918;DHT22;11123;49.882;8.662;2022-07-29T02:54:21;20.20;99.90
21918;DHT22;11123;49.882;8.662;2022-07-29T02:56:51;20.20;99.90
21918;DHT22;11123;49.882;8.662;2022-07-29T02:59:25;20.10;99.90
21918;DHT22;11123;49.882;8.662;2022-07-29T03:01:57;20.10;99.90
21918;DHT22;11123;49.882;8.662;2022-07-29T03:04:27;20.00;99.90
21918;DHT22;11123;49.882;8.662;2022-07-29T03:06:58;20.00;99.90
21918;DHT22;11123;49.882;8.662;2022-07-29T03:09:27;19.90;99.90
21918;DHT22;11123;49.882;8.662;2022-07-29T03:11:57;19.90;99.90
21918;DHT22;11123;49.882;8.662;2022-07-29T03:14:25;19.90;99.90
21918;DHT22;11123;49.882;8.662;2022-07-29T03:16:55;19.80;99.90
21918;DHT22;11123;49.882;8.662;2022-07-29T03:19:24;19.80;1.00
21918;DHT22;11123;49.882;8.662;2022-07-29T03:21:52;19.80;1.00
21918;DHT22;11123;49.882;8.662;2022-07-29T03:24:27;19.90;1.00
21918;DHT22;11123;49.882;8.662;2022-07-29T03:26:56;19.80;1.00
21918;DHT22;11123;49.882;8.662;2022-07-29T03:29:25;19.80;1.00
21918;DHT22;11123;49.882;8.662;2022-07-29T03:32:02;19.80;1.00
21918;DHT22;11123;49.882;8.662;2022-07-29T03:34:35;19.80;1.00
21918;DHT22;11123;49.882;8.662;2022-07-29T03:37:04;19.70;1.00
21918;DHT22;11123;49.882;8.662;2022-07-29T03:39:36;19.70;1.00
21918;DHT22;11123;49.882;8.662;2022-07-29T03:42:06;19.60;1.00
21918;DHT22;11123;49.882;8.662;2022-07-29T03:44:36;19.70;1.00
21918;DHT22;11123;49.882;8.662;2022-07-29T03:47:07;19.60;1.00
21918;DHT22;11123;49.882;8.662;2022-07-29T03:49:36;19.60;1.00
21918;DHT22;11123;49.882;8.662;2022-07-29T03:52:05;19.60;1.00
21918;DHT22;11123;49.882;8.662;2022-07-29T03:54:34;19.50;1.00
21918;DHT22;11123;49.882;8.662;2022-07-29T03:57:04;19.40;1.00
21918;DHT22;11123;49.882;8.662;2022-07-29T03:59:33;19.40;1.00
21918;DHT22;11123;49.882;8.662;2022-07-29T04:02:03;19.40;1.00
21918;DHT22;11123;49.882;8.662;2022-07-29T04:04:34;19.40;1.00
21918;DHT22;11123;49.882;8.662;2022-07-29T04:07:03;19.40;1.00
21918;DHT22;11123;49.882;8.662;2022-07-29T04:09:31;19.40;1.00
21918;DHT22;11123;49.882;8.662;2022-07-29T04:12:00;19.30;1.00
21918;DHT22;11123;49.882;8.662;2022-07-29T04:14:31;19.30;1.00
21918;DHT22;11123;49.882;8.662;2022-07-29T04:17:00;19.20;1.00
21918;DHT22;11123;49.882;8.662;2022-07-29T04:19:28;19.20;1.00
21918;DHT22;11123;49.882;8.662;2022-07-29T04:21:59;19.20;1.00
21918;DHT22;11123;49.882;8.662;2022-07-29T04:24:28;19.20;1.00
21918;DHT22;11123;49.882;8.662;2022-07-29T04:26:56;19.20;1.00
21918;DHT22;11123;49.882;8.662;2022-07-29T04:29:24;19.10;1.00
21918;DHT22;11123;49.882;8.662;2022-07-29T04:31:52;19.20;1.00
21918;DHT22;11123;49.882;8.662;2022-07-29T04:34:21;19.10;1.00
21918;DHT22;11123;49.882;8.662;2022-07-29T04:36:54;19.10;1.00
21918;DHT22;11123;49.882;8.662;2022-07-29T04:39:23;19.10;1.00
21918;DHT22;11123;49.882;8.662;2022-07-29T04:41:56;19.10;1.00
21918;DHT22;11123;49.882;8.662;2022-07-29T04:44:25;19.10;1.00
21918;DHT22;11123;49.882;8.662;2022-07-29T04:46:56;19.10;1.00
21918;DHT22;11123;49.882;8.662;2022-07-29T04:49:24;19.10;1.00
21918;DHT22;11123;49.882;8.662;2022-07-29T04:51:53;19.10;1.00
21918;DHT22;11123;49.882;8.662;2022-07-29T04:54:21;19.00;1.00
21918;DHT22;11123;49.882;8.662;2022-07-29T04:56:52;19.10;1.00
21918;DHT22;11123;49.882;8.662;2022-07-29T04:59:20;19.10;1.00
21918;DHT22;11123;49.882;8.662;2022-07-29T05:01:49;19.10;1.00
21918;DHT22;11123;49.882;8.662;2022-07-29T05:04:17;19.10;1.00
21918;DHT22;11123;49.882;8.662;2022-07-29T05:06:47;19.10;1.00
21918;DHT22;11123;49.882;8.662;2022-07-29T05:09:15;19.10;1.00
21918;DHT22;11123;49.882;8.662;2022-07-29T05:11:44;19.10;1.00
21918;DHT22;11123;49.882;8.662;2022-07-29T05:14:13;19.10;1.00
21918;DHT22;11123;49.882;8.662;2022-07-29T05:16:42;19.10;1.00
21918;DHT22;11123;49.882;8.662;2022-07-29T05:19:11;19.10;1.00
21918;DHT22;11123;49.882;8.662;2022-07-29T05:21:41;19.20;1.00
21918;DHT22;11123;49.882;8.662;2022-07-29T05:24:09;19.20;1.00
21918;DHT22;11123;49.882;8.662;2022-07-29T05:26:39;19.20;1.00
21918;DHT22;11123;49.882;8.662;2022-07-29T05:29:07;19.20;1.00
21918;DHT22;11123;49.882;8.662;2022-07-29T05:31:57;19.20;1.00
21918;DHT22;11123;49.882;8.662;2022-07-29T05:34:26;19.30;1.00
21918;DHT22;11123;49.882;8.662;2022-07-29T05:36:54;19.30;1.00
21918;DHT22;11123;49.882;8.662;2022-07-29T05:39:23;19.40;1.00
21918;DHT22;11123;49.882;8.662;2022-07-29T05:42:11;19.40;1.00
21918;DHT22;11123;49.882;8.662;2022-07-29T05:44:40;19.50;1.00
21918;DHT22;11123;49.882;8.662;2022-07-29T05:47:09;19.60;1.00
21918;DHT22;11123;49.882;8.662;2022-07-29T05:49:38;19.60;1.00
21918;DHT22;11123;49.882;8.662;2022-07-29T05:52:06;19.70;1.00
21918;DHT22;11123;49.882;8.662;2022-07-29T05:54:34;19.80;1.00
21918;DHT22;11123;49.882;8.662;2022-07-29T05:57:03;19.70;1.00
21918;DHT22;11123;49.882;8.662;2022-07-29T05:59:35;19.80;1.00
21918;DHT22;11123;49.882;8.662;2022-07-29T06:02:03;19.80;1.00
21918;DHT22;11123;49.882;8.662;2022-07-29T06:04:33;19.80;1.00
21918;DHT22;11123;49.882;8.662;2022-07-29T06:07:02;19.80;1.00
21918;DHT22;11123;49.882;8.662;2022-07-29T06:09:30;19.80;1.00
21918;DHT22;11123;49.882;8.662;2022-07-29T06:12:02;19.80;1.00
21918;DHT22;11123;49.882;8.662;2022-07-29T06:14:31;19.80;1.00
21918;DHT22;11123;49.882;8.662;2022-07-29T06:16:59;19.80;1.00
21918;DHT22;11123;49.882;8.662;2022-07-29T06:19:27;19.90;1.00
21918;DHT22;11123;49.882;8.662;2022-07-29T06:21:57;20.00;1.00
21918;DHT22;11123;49.882;8.662;2022-07-29T06:24:26;20.00;1.00
21918;DHT22;11123;49.882;8.662;2022-07-29T06:26:56;20.10;1.00
21918;DHT22;11123;49.882;8.662;2022-07-29T06:29:24;20.30;1.00
21918;DHT22;11123;49.882;8.662;2022-07-29T06:31:53;20.40;1.00
21918;DHT22;11123;49.882;8.662;2022-07-29T06:34:21;20.50;1.00
21918;DHT22;11123;49.882;8.662;2022-07-29T06:36:49;20.60;1.00
21918;DHT22;11123;49.882;8.662;2022-07-29T06:39:21;20.70;1.00
21918;DHT22;11123;49.882;8.662;2022-07-29T06:41:50;20.80;1.00
21918;DHT22;11123;49.882;8.662;2022-07-29T06:44:24;21.00;1.00
21918;DHT22;11123;49.882;8.662;2022-07-29T06:46:52;21.10;1.00
21918;DHT22;11123;49.882;8.662;2022-07-29T06:49:21;21.20;1.00
21918;DHT22;11123;49.882;8.662;2022-07-29T06:51:51;21.30;1.00
21918;DHT22;11123;49.882;8.662;2022-07-29T06:54:20;21.40;1.00
21918;DHT22;11123;49.882;8.662;2022-07-29T06:56:49;21.50;1.00
21918;DHT22;11123;49.882;8.662;2022-07-29T06:59:17;21.60;1.00
21918;DHT22;11123;49.882;8.662;2022-07-29T07:01:52;21.70;1.00
21918;DHT22;11123;49.882;8.662;2022-07-29T07:04:20;21.70;1.00
21918;DHT22;11123;49.882;8.662;2022-07-29T07:06:48;21.80;1.00
21918;DHT22;11123;49.882;8.662;2022-07-29T07:09:16;21.90;1.00
21918;DHT22;11123;49.882;8.662;2022-07-29T07:11:46;21.90;1.00
21918;DHT22;11123;49.882;8.662;2022-07-29T07:14:16;21.90;1.00
21918;DHT22;11123;49.882;8.662;2022-07-29T07:16:45;21.90;1.00
21918;DHT22;11123;49.882;8.662;2022-07-29T07:19:13;22.00;1.00
21918;DHT22;11123;49.882;8.662;2022-07-29T07:21:42;22.00;1.00
21918;DHT22;11123;49.882;8.662;2022-07-29T07:24:10;22.10;1.00
21918;DHT22;11123;49.882;8.662;2022-07-29T07:26:39;22.20;1.00
21918;DHT22;11123;49.882;8.662;2022-07-29T07:29:09;22.30;1.00
21918;DHT22;11123;49.882;8.662;2022-07-29T07:31:38;22.40;1.00
21918;DHT22;11123;49.882;8.662;2022-07-29T07:34:07;22.50;1.00
21918;DHT22;11123;49.882;8.662;2022-07-29T07:36:35;22.60;1.00
21918;DHT22;11123;49.882;8.662;2022-07-29T07:39:03;22.70;1.00
21918;DHT22;11123;49.882;8.662;2022-07-29T07:41:32;22.80;1.00
21918;DHT22;11123;49.882;8.662;2022-07-29T07:44:00;22.80;1.00
21918;DHT22;11123;49.882;8.662;2022-07-29T07:46:30;22.90;1.00
21918;DHT22;11123;49.882;8.662;2022-07-29T07:48:58;23.00;1.00
21918;DHT22;11123;49.882;8.662;2022-07-29T07:51:26;23.10;1.00
21918;DHT22;11123;49.882;8.662;2022-07-29T07:53:55;23.10;1.00
21918;DHT22;11123;49.882;8.662;2022-07-29T07:56:23;23.10;1.00
21918;DHT22;11123;49.882;8.662;2022-07-29T07:58:51;23.20;1.00
21918;DHT22;11123;49.882;8.662;2022-07-29T08:01:20;23.30;1.00
21918;DHT22;11123;49.882;8.662;2022-07-29T08:03:51;23.40;1.00
21918;DHT22;11123;49.882;8.662;2022-07-29T08:06:19;23.50;1.00
21918;DHT22;11123;49.882;8.662;2022-07-29T08:08:47;23.40;1.00
21918;DHT22;11123;49.882;8.662;2022-07-29T08:11:15;23.40;1.00
21918;DHT22;11123;49.882;8.662;2022-07-29T08:13:44;23.50;1.00
21918;DHT22;11123;49.882;8.662;2022-07-29T08:16:13;23.50;1.00
21918;DHT22;11123;49.882;8.662;2022-07-29T08:18:44;23.60;1.00
21918;DHT22;11123;49.882;8.662;2022-07-29T08:21:14;23.60;1.00
21918;DHT22;11123;49.882;8.662;2022-07-29T08:23:43;23.70;1.00
21918;DHT22;11123;49.882;8.662;2022-07-29T08:26:26;23.60;1.00
21918;DHT22;11123;49.882;8.662;2022-07-29T08:28:54;23.60;1.00
21918;DHT22;11123;49.882;8.662;2022-07-29T08:31:23;23.70;1.00
21918;DHT22;11123;49.882;8.662;2022-07-29T08:33:51;23.80;1.00
21918;DHT22;11123;49.882;8.662;2022-07-29T08:36:21;23.80;1.00
21918;DHT22;11123;49.882;8.662;2022-07-29T08:38:49;24.10;1.00
21918;DHT22;11123;49.882;8.662;2022-07-29T08:41:18;24.30;1.00
21918;DHT22;11123;49.882;8.662;2022-07-29T08:43:47;24.10;1.00
21918;DHT22;11123;49.882;8.662;2022-07-29T08:46:16;24.10;1.00
21918;DHT22;11123;49.882;8.662;2022-07-29T08:48:45;24.20;1.00
21918;DHT22;11123;49.882;8.662;2022-07-29T08:51:16;24.20;1.00
21918;DHT22;11123;49.882;8.662;2022-07-29T08:53:48;24.30;1.00
21918;DHT22;11123;49.882;8.662;2022-07-29T08:56:18;24.30;1.00
21918;DHT22;11123;49.882;8.662;2022-07-29T08:58:48;24.30;1.00
21918;DHT22;11123;49.882;8.662;2022-07-29T09:01:22;24.40;1.00
21918;DHT22;11123;49.882;8.662;2022-07-29T09:04:04;24.60;1.00
21918;DHT22;11123;49.882;8.662;2022-07-29T09:06:36;24.60;1.00
21918;DHT22;11123;49.882;8.662;2022-07-29T09:09:07;24.60;1.00
21918;DHT22;11123;49.882;8.662;2022-07-29T09:11:36;24.30;1.00
21918;DHT22;11123;49.882;8.662;2022-07-29T09:14:04;24.50;1.00
21918;DHT22;11123;49.882;8.662;2022-07-29T09:16:50;24.70;1.00
21918;DHT22;11123;49.882;8.662;2022-07-29T09:19:29;24.90;1.00
21918;DHT22;11123;49.882;8.662;2022-07-29T09:21:59;24.90;1.00
21918;DHT22;11123;49.882;8.662;2022-07-29T09:24:41;24.90;1.00
21918;DHT22;11123;49.882;8.662;2022-07-29T09:27:21;24.90;1.00
21918;DHT22;11123;49.882;8.662;2022-07-29T09:29:57;24.80;1.00
21918;DHT22;11123;49.882;8.662;2022-07-29T09:32:26;24.80;1.00
21918;DHT22;11123;49.882;8.662;2022-07-29T09:35:13;24.70;1.00
21918;DHT22;11123;49.882;8.662;2022-07-29T09:37:42;24.80;1.00
21918;DHT22;11123;49.882;8.662;2022-07-29T09:40:14;25.00;1.00
21918;DHT22;11123;49.882;8.662;2022-07-29T09:42:44;25.10;1.00
21918;DHT22;11123;49.882;8.662;2022-07-29T09:45:13;25.20;1.00
21918;DHT22;11123;49.882;8.662;2022-07-29T09:47:53;25.40;1.00
21918;DHT22;11123;49.882;8.662;2022-07-29T09:50:35;25.60;1.00
21918;DHT22;11123;49.882;8.662;2022-07-29T09:53:03;25.70;1.00
21918;DHT22;11123;49.882;8.662;2022-07-29T09:55:40;25.80;1.00
21918;DHT22;11123;49.882;8.662;2022-07-29T09:58:17;25.80;1.00
21918;DHT22;11123;49.882;8.662;2022-07-29T10:00:47;25.90;1.00
21918;DHT22;11123;49.882;8.662;2022-07-29T10:03:17;25.90;1.00
21918;DHT22;11123;49.882;8.662;2022-07-29T10:05:46;26.00;1.00
21918;DHT22;11123;49.882;8.662;2022-07-29T10:08:31;26.10;1.00
21918;DHT22;11123;49.882;8.662;2022-07-29T10:11:10;26.20;1.00
21918;DHT22;11123;49.882;8.662;2022-07-29T10:13:39;26.30;1.00
21918;DHT22;11123;49.882;8.662;2022-07-29T10:16:08;26.40;1.00
21918;DHT22;11123;49.882;8.662;2022-07-29T10:18:38;26.40;1.00
21918;DHT22;11123;49.882;8.662;2022-07-29T10:21:08;26.30;1.00
21918;DHT22;11123;49.882;8.662;2022-07-29T10:23:57;26.20;1.00
21918;DHT22;11123;49.882;8.662;2022-07-29T10:26:29;26.20;1.00
21918;DHT22;11123;49.882;8.662;2022-07-29T10:28:58;26.20;1.00
21918;DHT22;11123;49.882;8.662;2022-07-29T10:31:29;26.30;1.00
21918;DHT22;11123;49.882;8.662;2022-07-29T10:34:07;26.50;1.00
21918;DHT22;11123;49.882;8.662;2022-07-29T10:36:45;26.70;1.00
21918;DHT22;11123;49.882;8.662;2022-07-29T10:39:27;26.80;1.00
21918;DHT22;11123;49.882;8.662;2022-07-29T10:42:18;26.90;1.00
21918;DHT22;11123;49.882;8.662;2022-07-29T10:45:00;26.90;99.90
21918;DHT22;11123;49.882;8.662;2022-07-29T10:47:30;26.60;99.90
21918;DHT22;11123;49.882;8.662;2022-07-29T10:50:03;26.60;99.90
21918;DHT22;11123;49.882;8.662;2022-07-29T10:52:53;26.50;99.90
21918;DHT22;11123;49.882;8.662;2022-07-29T10:55:41;26.50;99.90
21918;DHT22;11123;49.882;8.662;2022-07-29T10:58:16;26.60;99.90
21918;DHT22;11123;49.882;8.662;2022-07-29T11:00:46;26.90;99.90
21918;DHT22;11123;49.882;8.662;2022-07-29T11:03:42;27.20;99.90
21918;DHT22;11123;49.882;8.662;2022-07-29T11:06:17;27.20;99.90
21918;DHT22;11123;49.882;8.662;2022-07-29T11:09:17;27.30;99.90
21918;DHT22;11123;49.882;8.662;2022-07-29T11:12:01;27.10;99.90
21918;DHT22;11123;49.882;8.662;2022-07-29T11:14:55;27.10;99.90
21918;DHT22;11123;49.882;8.662;2022-07-29T11:17:26;27.10;99.90
21918;DHT22;11123;49.882;8.662;2022-07-29T11:23:19;27.90;99.90
21918;DHT22;11123;49.882;8.662;2022-07-29T11:26:19;28.10;99.90
21918;DHT22;11123;49.882;8.662;2022-07-29T11:28:54;28.50;99.90
21918;DHT22;11123;49.882;8.662;2022-07-29T11:31:37;28.50;99.90
21918;DHT22;11123;49.882;8.662;2022-07-29T11:34:22;28.60;99.90
21918;DHT22;11123;49.882;8.662;2022-07-29T11:37:15;29.00;99.90
21918;DHT22;11123;49.882;8.662;2022-07-29T11:39:46;29.10;99.90
21918;DHT22;11123;49.882;8.662;2022-07-29T11:42:43;29.30;99.90
21918;DHT22;11123;49.882;8.662;2022-07-29T11:45:14;29.60;99.90
21918;DHT22;11123;49.882;8.662;2022-07-29T11:48:05;29.70;99.90
21918;DHT22;11123;49.882;8.662;2022-07-29T11:50:55;29.80;99.90
21918;DHT22;11123;49.882;8.662;2022-07-29T11:53:24;30.10;99.90
21918;DHT22;11123;49.882;8.662;2022-07-29T11:55:59;30.40;99.90
21918;DHT22;11123;49.882;8.662;2022-07-29T11:58:29;30.50;99.90
21918;DHT22;11123;49.882;8.662;2022-07-29T12:00:59;29.90;99.90
21918;DHT22;11123;49.882;8.662;2022-07-29T12:03:32;29.50;99.90
21918;DHT22;11123;49.882;8.662;2022-07-29T12:06:10;29.20;99.90
21918;DHT22;11123;49.882;8.662;2022-07-29T12:08:41;29.40;99.90
21918;DHT22;11123;49.882;8.662;2022-07-29T12:11:17;29.50;99.90
21918;DHT22;11123;49.882;8.662;2022-07-29T12:13:48;30.00;99.90
21918;DHT22;11123;49.882;8.662;2022-07-29T12:16:17;29.80;99.90
21918;DHT22;11123;49.882;8.662;2022-07-29T12:18:58;29.40;99.90
21918;DHT22;11123;49.882;8.662;2022-07-29T12:21:28;29.00;99.90
21918;DHT22;11123;49.882;8.662;2022-07-29T12:23:57;29.00;99.90
21918;DHT22;11123;49.882;8.662;2022-07-29T12:26:35;29.10;99.90
21918;DHT22;11123;49.882;8.662;2022-07-29T12:29:06;29.20;99.90
21918;DHT22;11123;49.882;8.662;2022-07-29T12:31:41;29.30;99.90
21918;DHT22;11123;49.882;8.662;2022-07-29T12:34:27;29.30;99.90
21918;DHT22;11123;49.882;8.662;2022-07-29T12:36:56;29.20;99.90
21918;DHT22;11123;49.882;8.662;2022-07-29T12:39:25;29.00;99.90
21918;DHT22;11123;49.882;8.662;2022-07-29T12:41:55;28.90;99.90
21918;DHT22;11123;49.882;8.662;2022-07-29T12:44:44;29.00;99.90
21918;DHT22;11123;49.882;8.662;2022-07-29T12:47:12;28.90;99.90
21918;DHT22;11123;49.882;8.662;2022-07-29T12:49:41;28.70;99.90
21918;DHT22;11123;49.882;8.662;2022-07-29T12:52:30;28.60;99.90
21918;DHT22;11123;49.882;8.662;2022-07-29T12:54:58;28.70;99.90
21918;DHT22;11123;49.882;8.662;2022-07-29T12:57:28;29.50;99.90
21918;DHT22;11123;49.882;8.662;2022-07-29T13:00:04;30.30;99.90
21918;DHT22;11123;49.882;8.662;2022-07-29T13:02:34;30.80;99.90
21918;DHT22;11123;49.882;8.662;2022-07-29T13:05:06;31.10;99.90
21918;DHT22;11123;49.882;8.662;2022-07-29T13:07:36;31.50;99.90
21918;DHT22;11123;49.882;8.662;2022-07-29T13:10:23;31.50;99.90
21918;DHT22;11123;49.882;8.662;2022-07-29T13:13:02;31.10;99.90
21918;DHT22;11123;49.882;8.662;2022-07-29T13:15:31;30.60;99.90
21918;DHT22;11123;49.882;8.662;2022-07-29T13:18:00;30.30;99.90
21918;DHT22;11123;49.882;8.662;2022-07-29T13:20:30;29.90;99.90
21918;DHT22;11123;49.882;8.662;2022-07-29T13:22:59;30.10;99.90
21918;DHT22;11123;49.882;8.662;2022-07-29T13:25:29;30.10;99.90
21918;DHT22;11123;49.882;8.662;2022-07-29T13:27:59;30.20;99.90
21918;DHT22;11123;49.882;8.662;2022-07-29T13:30:27;30.60;99.90
21918;DHT22;11123;49.882;8.662;2022-07-29T13:32:56;30.70;97.60
21918;DHT22;11123;49.882;8.662;2022-07-29T13:35:24;30.90;91.30
21918;DHT22;11123;49.882;8.662;2022-07-29T13:37:53;30.90;86.00
21918;DHT22;11123;49.882;8.662;2022-07-29T13:40:21;31.20;68.70
21918;DHT22;11123;49.882;8.662;2022-07-29T13:42:50;31.10;46.90
21918;DHT22;11123;49.882;8.662;2022-07-29T13:45:18;31.50;22.40
21918;DHT22;11123;49.882;8.662;2022-07-29T13:47:46;31.20;12.00
21918;DHT22;11123;49.882;8.662;2022-07-29T13:50:15;30.80;8.60
21918;DHT22;11123;49.882;8.662;2022-07-29T13:52:43;30.30;1.00
21918;DHT22;11123;49.882;8.662;2022-07-29T13:55:13;30.20;1.00
21918;DHT22;11123;49.882;8.662;2022-07-29T13:57:41;29.80;1.00
21918;DHT22;11123;49.882;8.662;2022-07-29T14:00:10;29.30;1.00
21918;DHT22;11123;49.882;8.662;2022-07-29T14:02:38;29.10;1.00
21918;DHT22;11123;49.882;8.662;2022-07-29T14:05:07;29.30;5.10
21918;DHT22;11123;49.882;8.662;2022-07-29T14:07:37;29.20;13.30
21918;DHT22;11123;49.882;8.662;2022-07-29T14:10:07;29.20;33.40
21918;DHT22;11123;49.882;8.662;2022-07-29T14:12:37;28.70;50.00
21918;DHT22;11123;49.882;8.662;2022-07-29T14:15:07;28.80;61.00
21918;DHT22;11123;49.882;8.662;2022-07-29T14:17:35;28.50;50.00
21918;DHT22;11123;49.882;8.662;2022-07-29T14:20:04;28.50;61.90
21918;DHT22;11123;49.882;8.662;2022-07-29T14:22:33;28.40;69.20
21918;DHT22;11123;49.882;8.662;2022-07-29T14:25:08;28.50;72.00
21918;DHT22;11123;49.882;8.662;2022-07-29T14:27:42;28.20;77.70
21918;DHT22;11123;49.882;8.662;2022-07-29T14:30:11;28.10;61.10
21918;DHT22;11123;49.882;8.662;2022-07-29T14:32:40;28.20;65.90
21918;DHT22;11123;49.882;8.662;2022-07-29T14:35:08;28.30;64.10
21918;DHT22;11123;49.882;8.662;2022-07-29T14:37:37;28.30;65.40
21918;DHT22;11123;49.882;8.662;2022-07-29T14:40:08;28.20;79.90
21918;DHT22;11123;49.882;8.662;2022-07-29T14:42:36;28.30;90.50
21918;DHT22;11123;49.882;8.662;2022-07-29T14:45:08;28.40;93.70
21918;DHT22;11123;49.882;8.662;2022-07-29T14:47:37;28.40;97.20
21918;DHT22;11123;49.882;8.662;2022-07-29T14:50:08;28.30;99.90
21918;DHT22;11123;49.882;8.662;2022-07-29T14:52:37;28.20;99.90
21918;DHT22;11123;49.882;8.662;2022-07-29T14:55:06;28.10;99.90
21918;DHT22;11123;49.882;8.662;2022-07-29T14:57:46;28.10;99.90
21918;DHT22;11123;49.882;8.662;2022-07-29T15:00:16;28.10;99.90
21918;DHT22;11123;49.882;8.662;2022-07-29T15:02:45;28.20;99.90
21918;DHT22;11123;49.882;8.662;2022-07-29T15:05:28;28.20;99.90
21918;DHT22;11123;49.882;8.662;2022-07-29T15:07:57;28.20;99.90
21918;DHT22;11123;49.882;8.662;2022-07-29T15:10:25;28.10;99.90
21918;DHT22;11123;49.882;8.662;2022-07-29T15:12:54;28.10;99.90
21918;DHT22;11123;49.882;8.662;2022-07-29T15:15:24;28.20;99.90
21918;DHT22;11123;49.882;8.662;2022-07-29T15:17:52;28.30;99.90
21918;DHT22;11123;49.882;8.662;2022-07-29T15:20:20;28.30;99.90
21918;DHT22;11123;49.882;8.662;2022-07-29T15:22:52;28.40;99.90
21918;DHT22;11123;49.882;8.662;2022-07-29T15:25:22;28.40;99.90
21918;DHT22;11123;49.882;8.662;2022-07-29T15:27:51;28.30;99.90
21918;DHT22;11123;49.882;8.662;2022-07-29T15:30:26;28.30;99.90
21918;DHT22;11123;49.882;8.662;2022-07-29T15:32:59;28.40;99.90
21918;DHT22;11123;49.882;8.662;2022-07-29T15:35:28;28.40;99.90
21918;DHT22;11123;49.882;8.662;2022-07-29T15:37:56;28.30;99.90
21918;DHT22;11123;49.882;8.662;2022-07-29T15:40:24;28.50;99.90
21918;DHT22;11123;49.882;8.662;2022-07-29T15:42:52;28.70;99.90
21918;DHT22;11123;49.882;8.662;2022-07-29T15:45:21;28.70;99.90
21918;DHT22;11123;49.882;8.662;2022-07-29T15:47:50;28.60;99.90
21918;DHT22;11123;49.882;8.662;2022-07-29T15:50:19;28.50;99.90
21918;DHT22;11123;49.882;8.662;2022-07-29T15:52:47;28.50;99.90
21918;DHT22;11123;49.882;8.662;2022-07-29T15:55:15;28.50;99.90
21918;DHT22;11123;49.882;8.662;2022-07-29T15:57:44;28.50;99.90
21918;DHT22;11123;49.882;8.662;2022-07-29T16:00:13;28.60;99.90
21918;DHT22;11123;49.882;8.662;2022-07-29T16:02:43;28.60;99.90
21918;DHT22;11123;49.882;8.662;2022-07-29T16:05:13;28.70;99.90
21918;DHT22;11123;49.882;8.662;2022-07-29T16:07:41;28.90;99.90
21918;DHT22;11123;49.882;8.662;2022-07-29T16:10:09;29.00;99.90